Time;durP1;ratioP1;P1;durP2;ratioP2;P2;SDS_P1;SDS_P2;PMS_P1;PMS_P2;Temp;Humidity;BMP_temperature;BMP_pressure;BME280_temperature;BME280_humidity;BME280_pressure;Samples;Min_cycle;Max_cycle;Signal;HPM_P1;HPM_P2
2022/03/12 00:00:56;;;;;;;;;;;;;;;9.47;39.02;101212.06;4879428;29;19923;-82
2022/03/12 00:03:22;;;;;;;;;;;;;;;9.44;39.04;101206.78;4878742;29;20359;-83
2022/03/12 00:05:55;;;;;;;;;;;;;;;9.45;39.23;101211.22;4894756;29;19916;-83
2022/03/12 00:08:34;;;;;;;;;;;;;;;9.48;39.46;101211.16;4878624;29;19919;-83
2022/03/12 00:11:00;;;;;;;;;;;;;;;9.46;38.77;101208.53;4879013;29;20022;-82
2022/03/12 00:13:25;;;;;;;;;;;;;;;9.44;39.34;101214.72;4878538;29;20307;-82
2022/03/12 00:15:51;;;;;;;;;;;;;;;9.46;39.40;101212.94;4878537;29;19951;-83
2022/03/12 00:18:18;;;;;;;;;;;;;;;9.46;39.33;101211.16;4893616;29;19916;-82
2022/03/12 00:20:48;;;;;;;;;;;;;;;9.46;39.40;101216.47;4894199;29;19911;-83
2022/03/12 00:23:21;;;;;;;;;;;;;;;9.48;39.33;101219.09;4878809;29;19970;-82
2022/03/12 00:25:49;;;;;;;;;;;;;;;9.47;39.06;101214.72;4898137;29;20041;-83
2022/03/12 00:28:16;;;;;;;;;;;;;;;9.45;39.35;101225.31;4897245;29;19915;-83
2022/03/12 00:30:47;;;;;;;;;;;;;;;9.44;39.16;101223.53;4897770;29;19967;-83
2022/03/12 00:33:13;;;;;;;;;;;;;;;9.44;39.52;101231.47;4899892;29;19923;-83
2022/03/12 00:35:39;;;;;;;;;;;;;;;9.45;39.65;101237.66;4890272;29;19919;-83
2022/03/12 00:38:05;;;;;;;;;;;;;;;9.43;39.46;101234.13;4881161;29;19915;-83
2022/03/12 00:40:30;;;;;;;;;;;;;;;9.45;39.43;101241.16;4898239;29;20356;-82
2022/03/12 00:42:56;;;;;;;;;;;;;;;9.43;39.70;101239.44;4900755;29;19926;-82
2022/03/12 00:45:22;;;;;;;;;;;;;;;9.43;39.87;101234.13;4900517;29;19934;-83
2022/03/12 00:47:49;;;;;;;;;;;;;;;9.54;39.30;101245.44;4900736;29;19926;-83
2022/03/12 00:50:15;;;;;;;;;;;;;;;9.44;39.71;101247.31;4900269;29;19915;-82
2022/03/12 00:52:41;;;;;;;;;;;;;;;9.40;39.97;101239.47;4884074;29;19919;-83
2022/03/12 00:55:06;;;;;;;;;;;;;;;9.42;39.88;101245.59;4881795;29;19923;-83
2022/03/12 00:57:32;;;;;;;;;;;;;;;9.40;39.92;101250.03;4881646;29;19919;-82
2022/03/12 00:59:57;;;;;;;;;;;;;;;9.37;40.14;101250.94;4881155;29;19930;-83
2022/03/12 01:02:22;;;;;;;;;;;;;;;9.37;40.81;101250.03;4897071;29;21209;-83
2022/03/12 01:04:48;;;;;;;;;;;;;;;9.38;40.37;101247.41;4897127;29;19941;-83
2022/03/12 01:07:13;;;;;;;;;;;;;;;9.34;40.35;101247.44;4880636;29;20317;-83
2022/03/12 01:09:39;;;;;;;;;;;;;;;9.33;40.82;101251.00;4881293;29;19919;-83
2022/03/12 01:12:05;;;;;;;;;;;;;;;9.31;40.48;101253.63;4885970;29;20234;-82
2022/03/12 01:14:31;;;;;;;;;;;;;;;9.29;40.99;101252.78;4899574;29;19916;-83
2022/03/12 01:16:58;;;;;;;;;;;;;;;9.30;41.09;101251.91;4899697;29;19919;-83
2022/03/12 01:19:24;;;;;;;;;;;;;;;9.26;41.36;101255.44;4884299;29;20030;-83
2022/03/12 01:21:49;;;;;;;;;;;;;;;9.29;41.00;101258.06;4915849;29;20402;-83
2022/03/12 01:24:14;;;;;;;;;;;;;;;9.26;41.81;101261.59;4919843;23;20017;-83
2022/03/12 01:26:40;;;;;;;;;;;;;;;9.32;42.07;101254.50;4937726;29;19918;-83
2022/03/12 01:29:07;;;;;;;;;;;;;;;9.32;41.49;101257.16;4920272;29;19981;-83
2022/03/12 01:31:33;;;;;;;;;;;;;;;9.37;41.01;101263.25;4936190;29;20231;-83
2022/03/12 01:33:58;;;;;;;;;;;;;;;9.32;42.55;101260.69;4908281;29;19965;-83
2022/03/12 01:36:23;;;;;;;;;;;;;;;9.29;44.02;101265.97;4902184;29;20385;-83
2022/03/12 01:38:50;;;;;;;;;;;;;;;9.29;43.52;101263.34;4903054;29;20030;-83
2022/03/12 01:41:20;;;;;;;;;;;;;;;9.27;42.99;101270.41;4918204;29;19990;-83
2022/03/12 01:43:46;;;;;;;;;;;;;;;9.26;44.60;101273.94;4918286;29;19915;-82
2022/03/12 01:46:11;;;;;;;;;;;;;;;9.21;44.57;101270.47;4902019;29;20386;-83
2022/03/12 01:48:47;;;;;;;;;;;;;;;9.19;45.00;101269.59;4902615;29;20054;-83
2022/03/12 01:51:13;;;;;;;;;;;;;;;9.15;46.75;101273.16;4902460;29;20330;-83
2022/03/12 01:53:38;;;;;;;;;;;;;;;9.12;46.37;101276.72;4902726;29;19930;-83
2022/03/12 01:56:04;;;;;;;;;;;;;;;9.16;46.01;101286.38;4902703;29;19922;-82
2022/03/12 01:58:29;;;;;;;;;;;;;;;9.10;46.16;101291.72;4918090;29;20405;-82
2022/03/12 02:00:57;;;;;;;;;;;;;;;9.06;48.75;101275.91;4934090;29;20074;-82
2022/03/12 02:03:29;;;;;;;;;;;;;;;9.01;48.24;101275.94;4918030;29;19926;-83
2022/03/12 02:05:58;;;;;;;;;;;;;;;9.04;48.27;101278.56;4902510;29;19970;-83
2022/03/12 02:08:25;;;;;;;;;;;;;;;8.98;48.54;101274.22;4935457;29;19966;-83
2022/03/12 02:10:51;;;;;;;;;;;;;;;8.93;49.64;101277.78;4902347;29;19988;-83
2022/03/12 02:13:17;;;;;;;;;;;;;;;8.86;49.26;101270.78;4903389;29;19919;-82
2022/03/12 02:15:43;;;;;;;;;;;;;;;8.81;50.18;101266.41;4898942;29;19978;-83
2022/03/12 02:18:09;;;;;;;;;;;;;;;8.79;49.09;101280.50;4883227;29;20013;-83
2022/03/12 02:20:35;;;;;;;;;;;;;;;8.77;48.87;101274.38;4909761;29;19926;-83
2022/03/12 02:23:01;;;;;;;;;;;;;;;8.76;48.17;101280.53;4934355;29;19998;-83
2022/03/12 02:25:31;;;;;;;;;;;;;;;8.76;49.29;101275.25;4918562;29;19921;-83
2022/03/12 02:27:57;;;;;;;;;;;;;;;8.72;49.96;101279.66;4917327;29;20251;-83
2022/03/12 02:30:25;;;;;;;;;;;;;;;8.69;50.05;101282.34;4917155;29;19943;-83
2022/03/12 02:32:59;;;;;;;;;;;;;;;8.67;50.60;101265.63;4915267;29;19919;-83
2022/03/12 02:35:25;;;;;;;;;;;;;;;8.66;48.90;101274.44;4922153;29;19926;-83
2022/03/12 02:37:52;;;;;;;;;;;;;;;8.62;51.12;101272.72;4901304;29;19911;-84
2022/03/12 02:40:17;;;;;;;;;;;;;;;8.66;49.56;101274.44;4901582;29;20778;-83
2022/03/12 02:42:44;;;;;;;;;;;;;;;8.64;49.70;101280.63;4916158;29;19915;-83
2022/03/12 02:45:10;;;;;;;;;;;;;;;8.62;48.72;101275.34;4901459;29;19923;-84
2022/03/12 02:47:36;;;;;;;;;;;;;;;8.66;49.25;101286.78;4901007;29;20385;-84
2022/03/12 02:50:06;;;;;;;;;;;;;;;8.64;48.58;101293.84;4917093;29;19991;-84
2022/03/12 02:52:32;;;;;;;;;;;;;;;8.58;49.45;101285.06;4917027;29;19930;-84
2022/03/12 02:54:59;;;;;;;;;;;;;;;8.63;47.80;101292.06;4901401;29;20295;-84
2022/03/12 02:57:26;;;;;;;;;;;;;;;8.58;49.30;101292.09;4916721;29;19918;-84
2022/03/12 02:59:55;;;;;;;;;;;;;;;8.57;49.69;101295.63;4900911;29;19918;-84
2022/03/12 03:02:25;;;;;;;;;;;;;;;8.55;49.23;101302.66;4900939;29;20381;-84
2022/03/12 03:04:51;;;;;;;;;;;;;;;8.57;49.83;101300.91;4917150;29;19922;-84
2022/03/12 03:07:16;;;;;;;;;;;;;;;8.57;49.39;101306.19;4901631;29;19910;-84
2022/03/12 03:09:41;;;;;;;;;;;;;;;8.56;49.48;101301.81;4901397;29;19994;-84
2022/03/12 03:12:09;;;;;;;;;;;;;;;8.55;50.21;101300.03;4926752;29;20355;-84
2022/03/12 03:14:36;;;;;;;;;;;;;;;8.53;50.14;101300.06;4898089;29;20002;-84
2022/03/12 03:17:03;;;;;;;;;;;;;;;8.57;48.00;101303.53;4882347;29;19915;-84
2022/03/12 03:19:29;;;;;;;;;;;;;;;8.53;48.65;101302.69;4897978;29;20386;-84
2022/03/12 03:21:55;;;;;;;;;;;;;;;8.55;49.55;101305.31;4896970;29;19919;-84
2022/03/12 03:24:21;;;;;;;;;;;;;;;8.50;49.35;101315.03;4893495;29;19946;-84
2022/03/12 03:26:46;;;;;;;;;;;;;;;8.48;48.94;101315.06;4877592;29;20371;-84
2022/03/12 03:29:13;;;;;;;;;;;;;;;8.44;48.89;101310.66;4879381;29;19915;-84
2022/03/12 03:31:41;;;;;;;;;;;;;;;8.39;49.88;101302.78;4894267;29;19982;-84
2022/03/12 03:34:06;;;;;;;;;;;;;;;8.31;50.88;101315.09;4923113;29;19915;-85
2022/03/12 03:36:32;;;;;;;;;;;;;;;8.28;50.48;101314.22;4897437;29;19966;-84
2022/03/12 03:38:57;;;;;;;;;;;;;;;8.24;50.42;101323.06;4915007;29;19915;-85
2022/03/12 03:41:23;;;;;;;;;;;;;;;8.19;49.94;101318.66;4897342;29;19930;-84
2022/03/12 03:43:48;;;;;;;;;;;;;;;8.15;49.66;101330.09;4897774;29;19916;-84
2022/03/12 03:46:16;;;;;;;;;;;;;;;8.11;50.74;101338.03;4897847;29;19919;-84
2022/03/12 03:48:41;;;;;;;;;;;;;;;8.06;51.38;101329.25;4897910;29;20287;-84
2022/03/12 03:51:07;;;;;;;;;;;;;;;8.01;50.20;101324.03;4913447;29;19927;-84
2022/03/12 03:53:32;;;;;;;;;;;;;;;7.98;51.61;101337.19;4915157;29;19926;-84
2022/03/12 03:56:00;;;;;;;;;;;;;;;7.96;51.30;101333.69;4897977;29;19973;-84
2022/03/12 03:58:26;;;;;;;;;;;;;;;7.92;51.49;101342.50;4898115;29;20379;-84
2022/03/12 04:00:54;;;;;;;;;;;;;;;7.88;50.67;101339.00;4901819;29;19915;-84
2022/03/12 04:03:19;;;;;;;;;;;;;;;7.85;50.70;101338.13;4916920;29;19987;-84
2022/03/12 04:05:46;;;;;;;;;;;;;;;7.83;50.92;101346.03;4901772;29;20262;-86
2022/03/12 04:08:11;;;;;;;;;;;;;;;7.80;51.20;101347.81;4901368;29;19930;-86
2022/03/12 04:10:38;;;;;;;;;;;;;;;7.78;49.73;101345.16;4916914;29;20264;-86
2022/03/12 04:13:20;;;;;;;;;;;;;;;7.76;51.65;101352.19;4888659;29;20355;-86
2022/03/12 04:15:46;;;;;;;;;;;;;;;7.72;54.45;101361.03;4898114;29;19995;-86
2022/03/12 04:18:13;;;;;;;;;;;;;;;7.69;52.22;101359.25;4897973;29;20355;-86
2022/03/12 04:20:39;;;;;;;;;;;;;;;7.67;51.75;101368.94;4898065;29;19915;-86
2022/03/12 04:23:04;;;;;;;;;;;;;;;7.65;53.47;101361.91;4882047;29;20015;-86
2022/03/12 04:25:31;;;;;;;;;;;;;;;7.63;52.54;101363.66;4897943;29;19975;-86
2022/03/12 04:27:57;;;;;;;;;;;;;;;7.60;54.63;101363.66;4897951;29;19945;-86
2022/03/12 04:30:23;;;;;;;;;;;;;;;7.59;53.40;101368.06;4913641;29;19967;-86
2022/03/12 04:32:49;;;;;;;;;;;;;;;7.58;55.48;101368.94;4884875;29;20288;-86
2022/03/12 04:35:18;;;;;;;;;;;;;;;7.57;55.72;101364.56;4900819;29;19966;-86
2022/03/12 04:37:44;;;;;;;;;;;;;;;7.55;56.65;101363.66;4900837;29;19922;-86
2022/03/12 04:40:11;;;;;;;;;;;;;;;7.55;57.23;101363.66;4901138;29;19919;-86
2022/03/12 04:42:44;;;;;;;;;;;;;;;7.52;55.87;101363.69;4932631;29;20010;-86
2022/03/12 04:45:14;;;;;;;;;;;;;;;7.50;57.02;101365.44;4917916;29;20014;-86
2022/03/12 04:47:43;;;;;;;;;;;;;;;7.49;55.12;101363.66;4900754;29;19915;-86
2022/03/12 04:50:12;;;;;;;;;;;;;;;7.50;55.71;101366.31;4900668;29;19922;-86
2022/03/12 04:52:42;;;;;;;;;;;;;;;7.49;56.18;101368.94;4900267;29;20485;-86
2022/03/12 04:55:11;;;;;;;;;;;;;;;7.46;56.65;101368.94;4916454;29;20670;-86
2022/03/12 04:57:37;;;;;;;;;;;;;;;7.46;56.17;101371.56;4900441;29;20018;-84
2022/03/12 05:00:03;;;;;;;;;;;;;;;7.43;57.62;101363.69;4900281;29;19958;-84
2022/03/12 05:02:29;;;;;;;;;;;;;;;7.41;56.59;101373.34;4914148;29;19975;-84
2022/03/12 05:04:54;;;;;;;;;;;;;;;7.42;60.91;101385.63;4900386;29;19923;-84
2022/03/12 05:07:20;;;;;;;;;;;;;;;7.41;57.09;101382.13;4900393;29;19926;-86
2022/03/12 05:09:46;;;;;;;;;;;;;;;7.42;60.79;101390.91;4915623;29;20121;-86
2022/03/12 05:12:11;;;;;;;;;;;;;;;7.40;57.92;101385.66;4893927;29;20294;-86
2022/03/12 05:14:37;;;;;;;;;;;;;;;7.41;57.88;101382.13;4913062;29;20002;-86
2022/03/12 05:17:03;;;;;;;;;;;;;;;7.37;58.83;101385.66;4881625;29;20351;-86
2022/03/12 05:19:30;;;;;;;;;;;;;;;7.37;59.21;101385.66;4882048;29;20071;-86
2022/03/12 05:21:55;;;;;;;;;;;;;;;7.36;58.81;101389.16;4881346;29;20006;-86
2022/03/12 05:24:20;;;;;;;;;;;;;;;7.32;61.96;101388.28;4879819;29;20320;-86
2022/03/12 05:26:46;;;;;;;;;;;;;;;7.32;60.05;101393.56;4880802;29;20042;-86
2022/03/12 05:29:11;;;;;;;;;;;;;;;7.32;61.02;101400.59;4896793;29;19927;-86
2022/03/12 05:31:37;;;;;;;;;;;;;;;7.31;59.56;101404.06;4880910;29;19999;-85
2022/03/12 05:34:02;;;;;;;;;;;;;;;7.29;62.13;101412.00;4893453;29;19914;-86
2022/03/12 05:36:28;;;;;;;;;;;;;;;7.29;63.25;101413.72;4930981;29;19922;-84
2022/03/12 05:38:54;;;;;;;;;;;;;;;7.27;61.26;101419.00;4915469;29;20252;-84
2022/03/12 05:41:19;;;;;;;;;;;;;;;7.25;61.85;101418.13;4898991;29;20017;-84
2022/03/12 05:43:46;;;;;;;;;;;;;;;7.25;64.32;101420.75;4931012;29;20026;-84
2022/03/12 05:46:14;;;;;;;;;;;;;;;7.25;61.62;101420.75;4916008;29;20319;-86
2022/03/12 05:48:40;;;;;;;;;;;;;;;7.26;59.27;101429.53;4915782;29;20271;-86
2022/03/12 05:51:09;;;;;;;;;;;;;;;7.25;61.73;101430.44;4899751;29;19925;-86
2022/03/12 05:53:36;;;;;;;;;;;;;;;7.24;61.28;101426.03;4900172;29;19923;-86
2022/03/12 05:56:02;;;;;;;;;;;;;;;7.23;63.86;101429.53;4899973;29;19962;-86
2022/03/12 05:58:28;;;;;;;;;;;;;;;7.20;64.14;101427.78;4915409;29;19942;-86
2022/03/12 06:00:55;;;;;;;;;;;;;;;7.19;62.16;101427.78;4899753;29;20033;-86
2022/03/12 06:03:21;;;;;;;;;;;;;;;7.17;62.43;101430.41;4915236;29;20010;-86
2022/03/12 06:05:56;;;;;;;;;;;;;;;7.16;62.28;101441.81;4899656;29;20029;-86
2022/03/12 06:08:22;;;;;;;;;;;;;;;7.13;61.62;101435.69;4915106;29;19984;-86
2022/03/12 06:10:50;;;;;;;;;;;;;;;7.08;61.43;101428.63;4930951;29;20280;-87
2022/03/12 06:13:16;;;;;;;;;;;;;;;7.07;63.38;101424.25;4884713;29;20355;-86
2022/03/12 06:15:41;;;;;;;;;;;;;;;7.07;63.56;101428.63;4896003;29;19934;-86
2022/03/12 06:18:08;;;;;;;;;;;;;;;7.05;65.17;101436.53;4880626;29;20246;-86
2022/03/12 06:20:37;;;;;;;;;;;;;;;7.06;60.48;101434.78;4895724;29;19911;-86
2022/03/12 06:23:03;;;;;;;;;;;;;;;7.05;62.22;101433.03;4895325;29;20159;-86
2022/03/12 06:25:29;;;;;;;;;;;;;;;7.05;63.23;101440.94;4911750;29;19931;-86
2022/03/12 06:27:54;;;;;;;;;;;;;;;7.04;63.45;101439.16;4911348;29;19919;-86
2022/03/12 06:30:26;;;;;;;;;;;;;;;7.04;63.80;101447.06;4880468;29;19923;-85
2022/03/12 06:32:53;;;;;;;;;;;;;;;7.03;62.66;101442.69;4912240;29;20033;-86
2022/03/12 06:35:18;;;;;;;;;;;;;;;7.03;62.91;101448.81;4914547;29;19911;-86
2022/03/12 06:37:44;;;;;;;;;;;;;;;7.04;64.83;101454.97;4914524;29;19937;-86
2022/03/12 06:40:16;;;;;;;;;;;;;;;7.04;63.97;101461.09;4926478;29;19931;-86
2022/03/12 06:42:46;;;;;;;;;;;;;;;7.05;64.95;101459.38;4895330;29;19970;-86
2022/03/12 06:45:13;;;;;;;;;;;;;;;7.07;63.21;101457.59;4896997;29;19915;-86
2022/03/12 06:47:39;;;;;;;;;;;;;;;7.07;64.23;101458.50;4895500;29;19918;-86
2022/03/12 06:50:08;;;;;;;;;;;;;;;7.11;62.54;101460.25;4895510;29;19919;-86
2022/03/12 06:52:34;;;;;;;;;;;;;;;7.11;63.28;101457.59;4912073;29;19983;-86
2022/03/12 06:55:00;;;;;;;;;;;;;;;7.13;66.29;101467.28;4898430;29;19919;-86
2022/03/12 06:57:25;;;;;;;;;;;;;;;7.17;63.31;101471.66;4898407;29;20280;-86
2022/03/12 06:59:50;;;;;;;;;;;;;;;7.18;65.04;101481.34;4898605;29;19978;-86
2022/03/12 07:02:16;;;;;;;;;;;;;;;7.21;62.05;101481.34;4914004;29;20283;-86
2022/03/12 07:04:41;;;;;;;;;;;;;;;7.24;64.39;101489.25;4898228;29;19915;-86
2022/03/12 07:07:07;;;;;;;;;;;;;;;7.27;65.26;101489.25;4898110;29;19923;-86
2022/03/12 07:09:34;;;;;;;;;;;;;;;7.30;65.03;101484.88;4898364;29;19911;-86
2022/03/12 07:12:00;;;;;;;;;;;;;;;7.35;66.72;101486.66;4893437;29;19930;-86
2022/03/12 07:14:25;;;;;;;;;;;;;;;7.37;66.65;101480.50;4879571;29;19919;-86
2022/03/12 07:16:51;;;;;;;;;;;;;;;7.40;68.69;101484.91;4879282;29;19922;-86
2022/03/12 07:19:17;;;;;;;;;;;;;;;7.42;65.76;101488.38;4879649;29;19915;-86
2022/03/12 07:21:42;;;;;;;;;;;;;;;7.46;64.87;101490.16;4900658;29;20333;-86
2022/03/12 07:24:08;;;;;;;;;;;;;;;7.51;67.99;101491.91;4911284;29;19922;-85
2022/03/12 07:26:33;;;;;;;;;;;;;;;7.56;66.66;101494.56;4916351;29;20366;-86
2022/03/12 07:28:59;;;;;;;;;;;;;;;7.58;67.68;101497.22;4933614;29;19921;-85
2022/03/12 07:31:25;;;;;;;;;;;;;;;7.62;69.05;101497.22;4916756;29;19934;-86
2022/03/12 07:33:52;;;;;;;;;;;;;;;7.68;64.67;101499.84;4919686;29;19910;-86
2022/03/12 07:36:18;;;;;;;;;;;;;;;7.72;66.82;101506.88;4885286;29;20009;-86
2022/03/12 07:38:43;;;;;;;;;;;;;;;7.76;68.80;101513.03;4914494;29;19930;-86
2022/03/12 07:41:09;;;;;;;;;;;;;;;7.84;68.77;101510.38;4906546;29;19950;-86
2022/03/12 07:43:34;;;;;;;;;;;;;;;7.91;67.17;101515.69;4869118;29;19922;-86
2022/03/12 07:46:01;;;;;;;;;;;;;;;8.01;67.71;101521.84;4900693;29;20223;-86
2022/03/12 07:48:27;;;;;;;;;;;;;;;8.09;65.29;101528.00;4932124;29;19966;-87
2022/03/12 07:50:53;;;;;;;;;;;;;;;8.19;64.34;101524.47;4925683;29;20079;-86
2022/03/12 07:53:18;;;;;;;;;;;;;;;8.29;67.73;101535.00;4900797;29;20422;-86
2022/03/12 07:55:44;;;;;;;;;;;;;;;8.36;66.69;101534.13;4916957;29;19911;-86
2022/03/12 07:58:09;;;;;;;;;;;;;;;8.48;66.13;101534.13;4932658;29;19918;-86
2022/03/12 08:00:35;;;;;;;;;;;;;;;8.56;67.98;101534.13;4916951;29;20315;-86
2022/03/12 08:03:00;;;;;;;;;;;;;;;8.66;67.61;101532.34;4916683;29;19917;-86
2022/03/12 08:05:26;;;;;;;;;;;;;;;8.74;67.65;101534.03;4900323;29;19978;-86
2022/03/12 08:07:54;;;;;;;;;;;;;;;8.82;67.17;101544.59;4931432;29;19929;-86
2022/03/12 08:10:23;;;;;;;;;;;;;;;8.92;66.08;101548.06;4914154;29;19914;-86
2022/03/12 08:12:50;;;;;;;;;;;;;;;8.98;67.26;101546.28;4913617;29;19934;-86
2022/03/12 08:15:15;;;;;;;;;;;;;;;9.03;67.11;101548.94;4920507;29;19922;-86
2022/03/12 08:17:42;;;;;;;;;;;;;;;9.14;67.83;101552.38;4934384;29;19919;-85
2022/03/12 08:20:08;;;;;;;;;;;;;;;9.22;68.41;101549.69;4917006;29;19915;-86
2022/03/12 08:22:35;;;;;;;;;;;;;;;9.32;66.13;101545.25;4932541;29;19965;-86
2022/03/12 08:25:01;;;;;;;;;;;;;;;9.39;65.89;101546.97;4917166;29;19914;-86
2022/03/12 08:27:28;;;;;;;;;;;;;;;9.50;66.08;101560.16;4927278;29;20064;-86
2022/03/12 08:29:54;;;;;;;;;;;;;;;9.61;65.95;101559.16;4898043;29;19923;-86
2022/03/12 08:32:19;;;;;;;;;;;;;;;9.69;66.99;101560.03;4884000;29;19931;-86
2022/03/12 08:34:45;;;;;;;;;;;;;;;9.80;66.10;101569.66;4900354;29;19929;-86
2022/03/12 08:37:11;;;;;;;;;;;;;;;9.87;65.83;101572.22;4900507;29;20350;-86
2022/03/12 08:39:37;;;;;;;;;;;;;;;9.96;65.71;101575.69;4933791;29;20386;-86
2022/03/12 08:42:02;;;;;;;;;;;;;;;10.07;64.73;101566.78;4916680;29;19918;-86
2022/03/12 08:44:28;;;;;;;;;;;;;;;10.16;65.07;101571.09;4917436;29;19929;-86
2022/03/12 08:46:53;;;;;;;;;;;;;;;10.25;64.31;101578.97;4920482;29;20069;-85
2022/03/12 08:49:19;;;;;;;;;;;;;;;10.41;63.77;101577.13;4904876;29;20021;-87
2022/03/12 08:51:46;;;;;;;;;;;;;;;10.43;64.50;101571.78;4904366;29;20078;-86
2022/03/12 08:54:11;;;;;;;;;;;;;;;10.52;63.52;101567.28;4920283;29;20010;-86
2022/03/12 08:56:37;;;;;;;;;;;;;;;10.62;64.77;101567.19;4904485;29;20381;-87
2022/03/12 08:59:03;;;;;;;;;;;;;;;10.67;64.45;101579.50;4904779;29;19914;-86
2022/03/12 09:01:29;;;;;;;;;;;;;;;10.75;64.91;101579.41;4904385;29;19923;-86
2022/03/12 09:03:55;;;;;;;;;;;;;;;10.85;64.66;101586.34;4904936;29;20242;-86
2022/03/12 09:06:20;;;;;;;;;;;;;;;10.91;62.78;101581.00;4904378;29;19922;-86
2022/03/12 09:08:47;;;;;;;;;;;;;;;10.93;63.70;101581.88;4904469;29;19915;-84
2022/03/12 09:11:17;;;;;;;;;;;;;;;10.98;63.39;101574.75;4900774;29;19966;-85
2022/03/12 09:13:42;;;;;;;;;;;;;;;11.10;62.95;101584.31;4924497;29;20345;-88
2022/03/12 09:16:08;;;;;;;;;;;;;;;11.03;63.31;101584.38;4934442;29;20010;-85
2022/03/12 09:18:34;;;;;;;;;;;;;;;11.06;63.04;101589.69;4919319;29;19926;-87
2022/03/12 09:20:59;;;;;;;;;;;;;;;11.07;63.07;101591.41;4919004;29;19919;-87
2022/03/12 09:23:25;;;;;;;;;;;;;;;11.14;62.96;101590.44;4900315;29;20298;-87
2022/03/12 09:25:50;;;;;;;;;;;;;;;11.26;62.52;101592.09;4884803;29;19919;-87
2022/03/12 09:28:19;;;;;;;;;;;;;;;11.16;62.48;101593.97;4920562;29;19922;-85
2022/03/12 09:30:50;;;;;;;;;;;;;;;11.17;62.96;101585.97;4905220;29;20002;-87
2022/03/12 09:33:15;;;;;;;;;;;;;;;11.19;62.37;101585.97;4935958;29;19935;-86
2022/03/12 09:35:41;;;;;;;;;;;;;;;11.42;61.43;101575.06;4935930;29;19938;-87
2022/03/12 09:38:06;;;;;;;;;;;;;;;11.32;61.39;101594.63;4897781;29;20002;-87
2022/03/12 09:40:32;;;;;;;;;;;;;;;11.38;61.39;101589.28;4898186;29;19919;-86
2022/03/12 09:42:58;;;;;;;;;;;;;;;11.49;60.92;101589.97;4897828;29;19931;-87
2022/03/12 09:45:24;;;;;;;;;;;;;;;11.49;60.76;101586.47;4898650;29;19919;-86
2022/03/12 09:47:50;;;;;;;;;;;;;;;11.58;60.36;101594.31;4897020;29;19921;-87
2022/03/12 09:50:15;;;;;;;;;;;;;;;11.71;59.70;101598.53;4928111;29;19923;-86
2022/03/12 09:52:41;;;;;;;;;;;;;;;11.76;59.59;101577.22;4930841;29;20468;-86
2022/03/12 09:55:07;;;;;;;;;;;;;;;11.86;59.00;101584.16;4900545;29;19922;-87
2022/03/12 09:57:34;;;;;;;;;;;;;;;11.90;58.38;101591.22;4916235;29;19915;-90
2022/03/12 09:59:59;;;;;;;;;;;;;;;11.97;57.70;101584.91;4900626;29;19915;-86
2022/03/12 10:02:25;;;;;;;;;;;;;;;11.95;58.04;101589.34;4900029;29;20486;-87
2022/03/12 10:04:50;;;;;;;;;;;;;;;11.96;57.85;101600.84;4896610;29;19930;-86
2022/03/12 10:07:17;;;;;;;;;;;;;;;11.91;57.89;101603.56;4896540;29;19951;-86
2022/03/12 10:09:42;;;;;;;;;;;;;;;11.91;57.54;101595.59;4880674;29;20231;-84
2022/03/12 10:12:08;;;;;;;;;;;;;;;12.03;57.27;101600.72;4881154;29;19931;-88
2022/03/12 10:14:34;;;;;;;;;;;;;;;12.02;57.40;101595.47;4881461;29;20364;-86
2022/03/12 10:17:02;;;;;;;;;;;;;;;12.16;56.79;101609.38;4881083;29;19915;-84
2022/03/12 10:19:29;;;;;;;;;;;;;;;12.22;56.78;101619.03;4896302;29;20335;-86
2022/03/12 10:21:55;;;;;;;;;;;;;;;12.36;55.52;101614.34;4880967;29;19950;-87
2022/03/12 10:24:20;;;;;;;;;;;;;;;12.33;55.14;101606.44;4881158;29;20283;-86
2022/03/12 10:26:46;;;;;;;;;;;;;;;12.29;55.96;101610.06;4881058;29;19919;-85
2022/03/12 10:29:12;;;;;;;;;;;;;;;12.35;55.48;101612.59;4881249;29;19919;-86
2022/03/12 10:31:41;;;;;;;;;;;;;;;12.33;55.15;101600.25;4898110;29;20005;-85
2022/03/12 10:34:23;;;;;;;;;;;;;;;12.41;55.25;101606.31;4912841;29;19923;-86
2022/03/12 10:36:50;;;;;;;;;;;;;;;12.47;54.71;101604.44;4915803;29;19915;-86
2022/03/12 10:39:17;;;;;;;;;;;;;;;12.54;54.77;101609.66;4899713;29;19915;-87
2022/03/12 10:41:42;;;;;;;;;;;;;;;12.54;54.69;101617.63;4899635;29;19911;-86
2022/03/12 10:44:09;;;;;;;;;;;;;;;12.52;54.42;101616.75;4899593;29;19925;-87
2022/03/12 10:46:39;;;;;;;;;;;;;;;12.50;54.02;101621.22;4899604;29;19919;-87
2022/03/12 10:49:07;;;;;;;;;;;;;;;12.54;53.48;101614.97;4899696;29;19919;-84
2022/03/12 10:51:35;;;;;;;;;;;;;;;12.61;54.35;101614.81;4899843;29;19919;-86
2022/03/12 10:54:07;;;;;;;;;;;;;;;12.90;53.58;101608.06;4899419;29;19998;-87
2022/03/12 10:56:40;;;;;;;;;;;;;;;13.15;53.02;101611.13;4931223;29;19915;-87
2022/03/12 10:59:10;;;;;;;;;;;;;;;13.35;52.17;101608.06;4899334;29;20319;-86
2022/03/12 11:01:35;;;;;;;;;;;;;;;13.51;51.86;101600.66;4930908;29;20014;-88
2022/03/12 11:04:01;;;;;;;;;;;;;;;13.62;52.09;101603.06;4914849;29;20354;-88
2022/03/12 11:06:26;;;;;;;;;;;;;;;13.80;50.61;101613.31;4898624;29;20326;-86
2022/03/12 11:08:53;;;;;;;;;;;;;;;13.90;51.12;101608.66;4914311;29;19919;-88
2022/03/12 11:11:19;;;;;;;;;;;;;;;13.92;50.64;101606.81;4897560;29;19918;-86
2022/03/12 11:13:52;;;;;;;;;;;;;;;14.02;51.21;101599.47;4913831;29;19915;-86
2022/03/12 11:16:24;;;;;;;;;;;;;;;14.14;50.16;101607.16;4898680;29;19915;-86
2022/03/12 11:18:52;;;;;;;;;;;;;;;14.13;49.96;101602.78;4914577;29;19915;-87
2022/03/12 11:21:25;;;;;;;;;;;;;;;13.98;50.08;101617.34;4914386;29;19958;-86
2022/03/12 11:23:50;;;;;;;;;;;;;;;13.98;49.82;101617.34;4924767;29;19923;-86
2022/03/12 11:26:16;;;;;;;;;;;;;;;14.00;49.63;101619.97;4933303;29;20005;-86
2022/03/12 11:28:43;;;;;;;;;;;;;;;14.05;50.32;101613.63;4916564;29;19921;-86
2022/03/12 11:31:10;;;;;;;;;;;;;;;14.15;49.56;101607.16;4916844;29;20389;-86
2022/03/12 11:33:36;;;;;;;;;;;;;;;14.27;49.49;101610.41;4916497;29;19915;-86
2022/03/12 11:36:10;;;;;;;;;;;;;;;14.40;48.17;101604.75;4916658;29;19924;-86
2022/03/12 11:38:36;;;;;;;;;;;;;;;14.52;48.92;101598.22;4924895;29;20374;-87
2022/03/12 11:41:03;;;;;;;;;;;;;;;14.67;48.69;101598.78;4898705;29;19915;-86
2022/03/12 11:43:33;;;;;;;;;;;;;;;14.76;48.01;101596.75;4914228;29;20016;-86
2022/03/12 11:46:03;;;;;;;;;;;;;;;14.75;48.21;101600.31;4883517;29;20022;-86
2022/03/12 11:48:33;;;;;;;;;;;;;;;14.75;46.04;101592.31;4931538;29;19930;-87
2022/03/12 11:51:03;;;;;;;;;;;;;;;14.75;45.79;101594.09;4900162;29;20051;-86
2022/03/12 11:53:36;;;;;;;;;;;;;;;14.77;45.70;101597.59;4898590;29;20014;-86
2022/03/12 11:56:02;;;;;;;;;;;;;;;14.74;46.28;101600.38;4898565;29;20237;-86
2022/03/12 11:58:27;;;;;;;;;;;;;;;14.83;46.92;101592.09;4903997;29;19966;-85
2022/03/12 12:00:53;;;;;;;;;;;;;;;14.92;46.70;101598.97;4916896;29;20334;-87
2022/03/12 12:03:18;;;;;;;;;;;;;;;15.08;46.61;101604.75;4880460;29;19919;-87
2022/03/12 12:05:45;;;;;;;;;;;;;;;15.20;45.98;101602.59;4901312;29;19918;-86
2022/03/12 12:08:14;;;;;;;;;;;;;;;15.21;45.50;101595.50;4916611;29;19970;-87
2022/03/12 12:10:42;;;;;;;;;;;;;;;15.16;44.83;101584.94;4922508;29;19911;-86
2022/03/12 12:13:13;;;;;;;;;;;;;;;15.31;45.22;101577.41;4880246;29;19930;-87
2022/03/12 12:15:41;;;;;;;;;;;;;;;15.47;44.99;101574.22;4931587;29;19915;-87
2022/03/12 12:18:08;;;;;;;;;;;;;;;15.63;45.21;101571.09;4885556;29;19952;-86
2022/03/12 12:20:34;;;;;;;;;;;;;;;15.89;44.80;101568.47;4919068;29;19933;-87
2022/03/12 12:23:01;;;;;;;;;;;;;;;16.07;44.40;101567.03;4917960;29;19922;-87
2022/03/12 12:25:30;;;;;;;;;;;;;;;16.29;43.89;101567.16;4919928;29;20010;-87
2022/03/12 12:27:55;;;;;;;;;;;;;;;16.40;42.58;101565.94;4935103;29;19922;-87
2022/03/12 12:30:42;;;;;;;;;;;;;;;16.43;42.36;101568.50;4919696;29;20239;-84
2022/03/12 12:33:20;;;;;;;;;;;;;;;16.41;42.74;101565.84;4934756;29;20126;-85
2022/03/12 12:35:47;;;;;;;;;;;;;;;16.58;41.72;101565.28;4926648;29;20370;-85
2022/03/12 12:38:13;;;;;;;;;;;;;;;16.70;42.44;101548.78;4917408;29;19950;-87
2022/03/12 12:40:43;;;;;;;;;;;;;;;16.85;42.20;101558.09;4920161;29;19915;-83